Huvudsida
METAR-TAF:

METAR-TAF

Flygplatser :

Dundee Riverside Airport

Dundee, Skottland

latitud: 56-27N, longitud: 003-01W, höjd: 4 m

Aktuellt väderrapport

Denna rapport gjordes för 41 minuter sedan, klockan 16:20 UTC
Vind 9 kt från väst/nordväst
Temperatur 11°C
Fuktighet 50%
Tryck 1032 hPa
Sikt 10 km eller mer
Få moln på en höjd av 4200 ft

METAR: EGPN 251620Z 30009KT 9999 FEW042 11/01 Q1032

Tid: 17:01 (17:01 UTC)

Väderprognos

Denna rapport gjordes för 3 timmar och 3 minuter sedan, klockan 13:58 UTC
Prognos gäller från 25 kl. 15 UTC till 25 kl. 21 UTC
Vind 10 kt från väst/nordväst
Sikt 10 km eller mer
Spridda moln på en höjd av 4000 ft
Blir
från 25 kl. 18 UTC till 25 kl. 21 UTC
Vind 5 kt från väst/sydväst

TAF: EGPN 251358Z 2515/2521 30010KT 9999 SCT040 BECMG 2518/2521 24005KT

Aktuella väderrapporter och prognoser från 4000 flygplatser (METAR- och TAF-rapporter).

De tillgängliga stationerna syns som gula och röda prickar på kartan.

För musen över prickarna för att se namnen på stationerna.

Klicka sedan för att få väderrapporter och prognoser.

För att ändra kartan: Klicka på de gröna knapparna med ett svart kors på för att zooma in; den gröna knappen med ett streck på för att zooma ut; eller på de gröna pilarna för angränsande kartor.


METAR-TAF: